createdAt,value
2023-02-13T00:02:57.665Z,3.35
2023-02-13T00:06:06.618Z,3.43
2023-02-13T00:09:21.656Z,3.32
2023-02-13T00:12:30.301Z,3.36
2023-02-13T00:15:38.703Z,3.44
2023-02-13T00:18:53.648Z,3.43
2023-02-13T00:21:55.449Z,3.36
2023-02-13T00:25:11.703Z,3.34
2023-02-13T00:28:13.567Z,3.16
2023-02-13T00:31:28.728Z,3.41
2023-02-13T00:34:37.637Z,3.40
2023-02-13T00:37:46.318Z,3.39
2023-02-13T00:40:54.789Z,3.37
2023-02-13T00:44:03.447Z,3.35
2023-02-13T00:47:11.661Z,3.32
2023-02-13T00:50:20.300Z,3.35
2023-02-13T00:53:34.685Z,3.29
2023-02-13T00:56:43.702Z,3.29
2023-02-13T00:59:59.086Z,3.24
2023-02-13T01:03:07.697Z,3.27
2023-02-13T01:06:16.385Z,3.24
2023-02-13T01:09:24.661Z,3.14
2023-02-13T01:12:33.230Z,3.02
2023-02-13T01:15:42.723Z,3.04
2023-02-13T01:18:52.489Z,3.11
2023-02-13T01:22:07.644Z,3.09
2023-02-13T01:25:23.755Z,3.06
2023-02-13T01:28:25.842Z,3.00
2023-02-13T01:31:41.785Z,3.06
2023-02-13T01:34:50.502Z,3.00
2023-02-13T01:37:58.681Z,3.00
2023-02-13T01:41:08.839Z,2.99
2023-02-13T01:44:36.735Z,3.01
2023-02-13T01:47:49.677Z,2.93
2023-02-13T01:51:08.728Z,2.92
2023-02-13T01:54:21.694Z,2.93
2023-02-13T01:57:39.409Z,2.94
2023-02-13T02:00:53.695Z,2.87
2023-02-13T02:04:16.766Z,2.93
2023-02-13T02:07:32.703Z,3.02
2023-02-13T02:10:48.701Z,3.08
2023-02-13T02:13:51.301Z,3.01
2023-02-13T02:17:05.723Z,3.02
2023-02-13T02:20:39.629Z,2.92
2023-02-13T02:24:34.693Z,2.92
2023-02-13T02:28:11.750Z,2.96
2023-02-13T02:31:40.360Z,2.91
2023-02-13T02:35:06.735Z,2.90
2023-02-13T02:38:37.838Z,2.85
2023-02-13T02:42:05.781Z,2.79
2023-02-13T02:45:32.772Z,2.74
2023-02-13T02:48:53.751Z,2.68
2023-02-13T02:52:15.712Z,2.63
2023-02-13T02:55:37.453Z,2.58
2023-02-13T02:59:07.672Z,2.55
2023-02-13T03:02:16.958Z,2.54
2023-02-13T03:05:36.881Z,2.51
2023-02-13T03:08:59.721Z,2.48
2023-02-13T03:12:03.044Z,2.46
2023-02-13T03:15:17.735Z,2.42
2023-02-13T03:18:28.222Z,2.42
2023-02-13T03:22:08.856Z,2.40
2023-02-13T03:25:32.720Z,2.37
2023-02-13T03:28:47.934Z,2.28
2023-02-13T03:32:22.703Z,2.30
2023-02-13T03:35:52.898Z,2.28
2023-02-13T03:39:18.418Z,2.27
2023-02-13T03:42:41.746Z,2.28
2023-02-13T03:45:50.417Z,2.36
2023-02-13T03:49:00.758Z,2.35
2023-02-13T03:52:19.321Z,2.40
2023-02-13T03:55:31.779Z,2.40
2023-02-13T03:58:58.776Z,2.40
2023-02-13T04:02:19.869Z,2.40
2023-02-13T04:05:34.059Z,2.42
2023-02-13T04:08:42.743Z,2.38
2023-02-13T04:12:00.186Z,2.32
2023-02-13T04:15:15.737Z,2.33
2023-02-13T04:18:35.705Z,2.34
2023-02-13T04:21:40.562Z,2.27
2023-02-13T04:24:55.723Z,2.23
2023-02-13T04:28:06.790Z,2.15
2023-02-13T04:31:21.879Z,2.15
2023-02-13T04:34:23.721Z,2.08
2023-02-13T04:37:38.762Z,2.06
2023-02-13T04:40:40.714Z,2.04
2023-02-13T04:43:55.733Z,2.13
2023-02-13T04:46:57.576Z,2.07
2023-02-13T04:50:13.757Z,1.99
2023-02-13T04:53:21.766Z,2.05
2023-02-13T04:56:37.090Z,2.08
2023-02-13T04:59:45.764Z,2.01
2023-02-13T05:03:01.742Z,2.05
2023-02-13T05:06:03.761Z,2.02
2023-02-13T05:09:18.759Z,1.96
2023-02-13T05:12:20.717Z,1.92
2023-02-13T05:15:35.872Z,1.85
2023-02-13T05:18:37.737Z,1.87
2023-02-13T05:21:52.725Z,2.26
2023-02-13T05:25:07.762Z,2.04
2023-02-13T05:28:16.915Z,1.98
2023-02-13T05:31:25.698Z,1.88
2023-02-13T05:34:35.792Z,1.82
2023-02-13T05:37:45.077Z,1.84
2023-02-13T05:40:53.781Z,1.85
2023-02-13T05:44:02.545Z,1.85
2023-02-13T05:47:10.773Z,1.92
2023-02-13T05:50:25.766Z,1.89
2023-02-13T05:53:34.790Z,1.92
2023-02-13T05:56:56.746Z,1.92
2023-02-13T06:00:12.740Z,1.96
2023-02-13T06:03:27.791Z,1.90
2023-02-13T06:06:36.464Z,1.94
2023-02-13T06:09:50.805Z,1.92
2023-02-13T06:12:59.443Z,1.96
2023-02-13T06:16:16.831Z,1.96
2023-02-13T06:19:25.794Z,2.03
2023-02-13T06:22:34.704Z,2.06
2023-02-13T06:25:43.827Z,2.09
2023-02-13T06:28:52.381Z,2.11
2023-02-13T06:32:07.834Z,2.19
2023-02-13T06:35:09.964Z,2.21
2023-02-13T06:38:24.912Z,2.24
2023-02-13T06:41:27.351Z,2.23
2023-02-13T06:44:41.860Z,2.23
2023-02-13T06:47:45.616Z,2.28
2023-02-13T06:51:00.816Z,2.28
2023-02-13T06:54:02.724Z,2.34
2023-02-13T06:57:24.821Z,2.33
2023-02-13T07:00:39.839Z,2.35
2023-02-13T07:07:30.814Z,2.32
2023-02-13T07:10:41.554Z,2.45
2023-02-13T07:13:55.819Z,2.54
2023-02-13T07:17:04.833Z,2.69
2023-02-13T07:20:13.831Z,2.60
2023-02-13T07:23:28.828Z,2.62
2023-02-13T07:26:37.566Z,2.58
2023-02-13T07:29:52.792Z,2.64
2023-02-13T07:33:05.845Z,4.89
2023-02-13T07:36:14.529Z,4.28
2023-02-13T07:39:22.825Z,4.49
2023-02-13T07:42:53.306Z,7.06
2023-02-13T07:46:02.029Z,6.83
2023-02-13T07:49:24.870Z,6.27
2023-02-13T07:52:40.831Z,5.05
2023-02-13T07:55:42.985Z,6.07
2023-02-13T07:58:57.823Z,4.76
2023-02-13T08:01:59.932Z,4.50
2023-02-13T08:05:14.973Z,3.96
2023-02-13T08:08:17.165Z,5.24
2023-02-13T08:12:04.147Z,4.85
2023-02-13T08:15:14.365Z,4.79
2023-02-13T08:18:22.845Z,5.75
2023-02-13T08:21:41.909Z,4.96
2023-02-13T08:24:50.556Z,5.97
2023-02-13T08:28:01.976Z,4.87
2023-02-13T08:31:12.165Z,7.37
2023-02-13T08:34:20.866Z,6.94
2023-02-13T08:37:47.760Z,7.84
2023-02-13T08:41:03.849Z,7.58
2023-02-13T08:44:05.909Z,6.47
2023-02-13T08:47:21.089Z,6.76
2023-02-13T08:50:37.306Z,5.97
2023-02-13T08:53:57.981Z,5.43
2023-02-13T08:57:16.883Z,5.17
2023-02-13T09:03:39.872Z,5.91
2023-02-13T09:06:48.688Z,5.44
2023-02-13T09:10:03.862Z,5.06
2023-02-13T09:13:12.942Z,4.92
2023-02-13T09:16:29.249Z,5.02
2023-02-13T09:19:37.874Z,6.15
2023-02-13T09:22:46.948Z,6.00
2023-02-13T09:26:01.876Z,5.95
2023-02-13T09:29:44.877Z,6.00
2023-02-13T09:32:52.936Z,5.78
2023-02-13T09:36:13.905Z,6.99
2023-02-13T09:39:25.783Z,6.46
2023-02-13T09:42:44.282Z,6.32
2023-02-13T09:45:48.754Z,5.93
2023-02-13T09:49:07.914Z,7.65
2023-02-13T09:52:17.120Z,8.22
2023-02-13T09:55:56.268Z,8.17
2023-02-13T09:59:12.968Z,7.26
2023-02-13T10:02:49.108Z,9.14
2023-02-13T10:06:21.930Z,10.62
2023-02-13T10:09:46.026Z,10.69
2023-02-13T10:13:07.674Z,9.18
2023-02-13T10:16:27.969Z,8.25
2023-02-13T10:19:50.487Z,7.70
2023-02-13T10:23:18.898Z,7.07
2023-02-13T10:26:39.994Z,6.82
2023-02-13T10:33:28.654Z,7.17
2023-02-13T10:36:52.988Z,7.94
2023-02-13T10:40:01.651Z,7.69
2023-02-13T10:43:15.904Z,8.25
2023-02-13T10:46:43.994Z,8.16
2023-02-13T10:50:06.451Z,8.04
2023-02-13T10:53:30.913Z,8.01
2023-02-13T10:56:59.961Z,8.11
2023-02-13T11:00:38.156Z,8.23
2023-02-13T11:04:14.955Z,8.45
2023-02-13T11:07:27.999Z,8.74
2023-02-13T11:10:36.774Z,9.59
2023-02-13T11:13:45.934Z,9.69
2023-02-13T11:17:04.943Z,9.29
2023-02-13T11:20:34.195Z,10.70
2023-02-13T11:23:56.922Z,10.33
2023-02-13T11:27:12.383Z,10.09
2023-02-13T11:30:41.040Z,9.72
2023-02-13T11:33:58.549Z,9.57
2023-02-13T11:37:17.054Z,9.41
2023-02-13T11:40:38.078Z,9.52
2023-02-13T11:44:00.537Z,9.20
2023-02-13T11:47:15.895Z,8.82
2023-02-13T11:50:40.972Z,8.55
2023-02-13T11:53:42.993Z,8.82
2023-02-13T11:57:05.484Z,15.51
2023-02-13T12:00:29.466Z,19.53
2023-02-13T12:03:43.995Z,21.86
2023-02-13T12:07:02.740Z,21.09
2023-02-13T12:10:35.940Z,22.46
2023-02-13T12:13:51.941Z,23.70
2023-02-13T12:17:06.342Z,22.39
2023-02-13T12:20:21.024Z,22.07
2023-02-13T12:23:48.905Z,23.80
2023-02-13T12:27:21.948Z,22.02
2023-02-13T12:31:04.952Z,22.24
2023-02-13T12:34:57.028Z,21.83
2023-02-13T12:38:07.801Z,20.70
2023-02-13T12:41:28.999Z,19.49
2023-02-13T12:44:54.466Z,20.71
2023-02-13T12:48:26.963Z,19.76
2023-02-13T12:52:07.987Z,19.85
2023-02-13T12:55:43.422Z,20.38
2023-02-13T12:59:08.001Z,21.54
2023-02-13T13:02:29.914Z,20.89
2023-02-13T13:06:11.782Z,21.72
2023-02-13T13:09:51.023Z,21.20
2023-02-13T13:13:25.953Z,20.58
2023-02-13T13:20:49.129Z,19.54
2023-02-13T13:24:29.981Z,19.71
2023-02-13T13:27:48.254Z,18.30
2023-02-13T13:31:05.108Z,14.90
2023-02-13T13:34:27.022Z,12.93
2023-02-13T13:37:43.169Z,11.67
2023-02-13T13:41:08.173Z,11.12
2023-02-13T13:44:40.065Z,10.29
2023-02-13T13:48:06.818Z,9.97
2023-02-13T13:51:19.110Z,9.54
2023-02-13T13:54:34.069Z,9.41
2023-02-13T13:58:06.024Z,9.40
2023-02-13T14:01:30.100Z,9.45
2023-02-13T14:04:39.638Z,9.25
2023-02-13T14:07:56.996Z,8.99
2023-02-13T14:11:02.168Z,8.82
2023-02-13T14:14:47.049Z,9.00
2023-02-13T14:18:02.980Z,9.02
2023-02-13T14:21:13.073Z,9.39
2023-02-13T14:24:30.993Z,8.90
2023-02-13T14:27:40.603Z,9.30
2023-02-13T14:30:49.097Z,8.88
2023-02-13T14:34:27.106Z,9.34
2023-02-13T14:37:45.025Z,9.04
2023-02-13T14:40:56.304Z,9.14
2023-02-13T14:44:04.977Z,9.29
2023-02-13T14:47:30.073Z,8.87
2023-02-13T14:50:44.584Z,8.72
2023-02-13T14:54:05.191Z,8.44
2023-02-13T14:57:21.103Z,8.53
2023-02-13T15:00:51.066Z,8.39
2023-02-13T15:04:10.580Z,8.27
2023-02-13T15:07:31.021Z,8.22
2023-02-13T15:11:02.026Z,8.31
2023-02-13T15:14:33.272Z,8.28
2023-02-13T15:17:48.100Z,8.17
2023-02-13T15:20:50.308Z,8.19
2023-02-13T15:24:05.102Z,8.01
2023-02-13T15:27:27.137Z,7.98
2023-02-13T15:30:32.337Z,7.98
2023-02-13T15:33:56.098Z,7.98
2023-02-13T15:37:04.742Z,8.03
2023-02-13T15:40:22.039Z,8.00
2023-02-13T15:43:38.316Z,8.09
2023-02-13T15:46:48.101Z,8.01
2023-02-13T15:50:04.090Z,8.09
2023-02-13T15:53:21.063Z,8.08
2023-02-13T15:56:45.057Z,8.00
2023-02-13T15:59:48.306Z,7.88
2023-02-13T16:03:05.125Z,7.69
2023-02-13T16:06:13.154Z,7.66
2023-02-13T16:09:40.037Z,7.62
2023-02-13T16:12:47.999Z,7.65
2023-02-13T16:16:04.102Z,7.64
2023-02-13T16:19:31.045Z,7.71
2023-02-13T16:22:38.116Z,7.73
2023-02-13T16:25:55.035Z,7.61
2023-02-13T16:28:57.607Z,7.48
2023-02-13T16:32:25.093Z,7.36
2023-02-13T16:35:30.817Z,7.36
2023-02-13T16:38:50.047Z,7.39
2023-02-13T16:41:59.110Z,7.26
2023-02-13T16:45:22.069Z,7.09
2023-02-13T16:48:39.064Z,7.14
2023-02-13T16:51:57.103Z,7.05
2023-02-13T16:55:15.357Z,6.94
2023-02-13T16:58:32.093Z,7.00
2023-02-13T17:01:33.956Z,7.18
2023-02-13T17:04:54.120Z,7.50
2023-02-13T17:08:09.094Z,7.72
2023-02-13T17:11:18.985Z,8.15
2023-02-13T17:14:34.114Z,8.81
2023-02-13T17:17:36.073Z,8.80
2023-02-13T17:20:52.159Z,7.98
2023-02-13T17:24:02.284Z,7.71
2023-02-13T17:27:19.341Z,7.51
2023-02-13T17:30:32.060Z,7.38
2023-02-13T17:33:54.247Z,7.39
2023-02-13T17:36:56.255Z,7.40
2023-02-13T17:40:12.017Z,7.40
2023-02-13T17:43:24.196Z,7.37
2023-02-13T17:46:40.082Z,7.40
2023-02-13T17:49:42.198Z,7.33
2023-02-13T17:52:58.092Z,7.19
2023-02-13T17:56:06.140Z,7.27
2023-02-13T17:59:21.081Z,7.14
2023-02-13T18:02:24.678Z,7.00
2023-02-13T18:05:43.169Z,6.85
2023-02-13T18:08:45.359Z,6.82
2023-02-13T18:12:05.331Z,6.73
2023-02-13T18:15:08.626Z,6.73
2023-02-13T18:18:23.148Z,6.58
2023-02-13T18:21:38.161Z,6.72
2023-02-13T18:24:54.144Z,6.68
2023-02-13T18:27:56.177Z,6.67
2023-02-13T18:31:12.194Z,6.58
2023-02-13T18:34:30.506Z,6.65
2023-02-13T18:37:46.414Z,6.75
2023-02-13T18:40:55.121Z,6.69
2023-02-13T18:44:03.864Z,6.64
2023-02-13T18:47:21.165Z,6.64
2023-02-13T18:50:24.458Z,6.56
2023-02-13T18:53:47.546Z,6.57
2023-02-13T18:56:49.788Z,6.54
2023-02-13T19:00:04.139Z,6.50
2023-02-13T19:03:06.743Z,6.52
2023-02-13T19:06:27.134Z,6.54
2023-02-13T19:09:36.267Z,6.53
2023-02-13T19:12:53.259Z,6.61
2023-02-13T19:16:02.172Z,6.53
2023-02-13T19:19:17.208Z,6.54
2023-02-13T19:22:19.203Z,6.55
2023-02-13T19:25:34.120Z,6.37
2023-02-13T19:28:37.366Z,6.32
2023-02-13T19:31:53.247Z,6.42
2023-02-13T19:35:09.134Z,6.36
2023-02-13T19:38:19.294Z,6.39
2023-02-13T19:41:35.122Z,6.36
2023-02-13T19:44:44.164Z,6.38
2023-02-13T19:47:53.018Z,6.41
2023-02-13T19:51:02.271Z,6.43
2023-02-13T19:54:18.136Z,6.41
2023-02-13T19:57:27.130Z,6.26
2023-02-13T20:00:43.202Z,6.24
2023-02-13T20:03:59.192Z,6.18
2023-02-13T20:07:01.112Z,6.16
2023-02-13T20:10:17.189Z,6.14
2023-02-13T20:13:33.171Z,6.07
2023-02-13T20:16:35.051Z,6.11
2023-02-13T20:19:50.234Z,6.07
2023-02-13T20:22:59.184Z,6.06
2023-02-13T20:26:12.776Z,5.96
2023-02-13T20:29:22.161Z,6.04
2023-02-13T20:32:44.170Z,6.01
2023-02-13T20:35:52.877Z,5.99
2023-02-13T20:39:11.153Z,5.96
2023-02-13T20:42:13.857Z,5.91
2023-02-13T20:45:28.194Z,5.93
2023-02-13T20:48:31.787Z,5.84
2023-02-13T20:51:47.234Z,5.85
2023-02-13T20:54:56.149Z,5.92
2023-02-13T20:58:12.161Z,5.92
2023-02-13T21:01:24.619Z,5.85
2023-02-13T21:04:40.261Z,5.98
2023-02-13T21:07:49.085Z,5.96
2023-02-13T21:10:58.472Z,5.88
2023-02-13T21:14:14.177Z,5.91
2023-02-13T21:17:23.025Z,5.95
2023-02-13T21:20:31.161Z,5.93
2023-02-13T21:23:40.397Z,5.92
2023-02-13T21:26:50.209Z,5.77
2023-02-13T21:29:58.780Z,5.86
2023-02-13T21:33:07.297Z,5.84
2023-02-13T21:36:29.237Z,5.80
2023-02-13T21:39:38.164Z,5.76
2023-02-13T21:42:53.314Z,5.78
2023-02-13T21:46:14.489Z,5.69
2023-02-13T21:49:29.252Z,5.82
2023-02-13T21:52:44.397Z,5.79
2023-02-13T21:55:46.322Z,5.77
2023-02-13T21:59:02.197Z,5.75
2023-02-13T22:02:04.465Z,5.71
2023-02-13T22:05:19.218Z,5.59
2023-02-13T22:08:27.209Z,5.61
2023-02-13T22:11:36.405Z,5.62
2023-02-13T22:14:45.205Z,5.64
2023-02-13T22:17:53.832Z,5.74
2023-02-13T22:21:17.203Z,5.68
2023-02-13T22:24:32.182Z,5.66
2023-02-13T22:27:45.929Z,5.65
2023-02-13T22:31:01.567Z,5.65
2023-02-13T22:34:16.514Z,5.62
2023-02-13T22:37:31.225Z,5.55
2023-02-13T22:40:46.231Z,5.63
2023-02-13T22:43:48.490Z,5.62
2023-02-13T22:47:03.231Z,5.64
2023-02-13T22:50:11.869Z,5.47
2023-02-13T22:53:26.261Z,5.43
2023-02-13T22:56:30.342Z,5.36
2023-02-13T22:59:45.233Z,5.30
2023-02-13T23:02:47.160Z,5.28
2023-02-13T23:06:02.207Z,5.24
2023-02-13T23:09:10.205Z,5.21
2023-02-13T23:12:19.346Z,5.27
2023-02-13T23:15:28.334Z,5.16
2023-02-13T23:18:36.952Z,5.04
2023-02-13T23:21:45.241Z,5.16
2023-02-13T23:25:00.251Z,5.18
2023-02-13T23:28:02.246Z,5.17
2023-02-13T23:31:17.323Z,5.09
2023-02-13T23:34:19.785Z,5.04
2023-02-13T23:37:35.228Z,5.05
2023-02-13T23:40:37.172Z,5.01
2023-02-13T23:43:52.201Z,5.03
2023-02-13T23:47:00.262Z,5.04
2023-02-13T23:50:09.249Z,5.03
2023-02-13T23:53:18.278Z,5.06
2023-02-13T23:56:27.040Z,5.15
2023-02-13T23:59:42.216Z,5.22
